createdAt,value
2023-02-14T00:01:51.725Z,34.23
2023-02-14T00:04:21.398Z,35.30
2023-02-14T00:06:50.048Z,33.10
2023-02-14T00:09:20.715Z,34.07
2023-02-14T00:11:49.157Z,31.73
2023-02-14T00:14:36.065Z,34.47
2023-02-14T00:17:05.826Z,32.60
2023-02-14T00:19:34.817Z,33.17
2023-02-14T00:22:03.263Z,33.03
2023-02-14T00:24:31.666Z,33.07
2023-02-14T00:27:00.361Z,32.00
2023-02-14T00:29:30.963Z,31.00
2023-02-14T00:31:59.344Z,32.57
2023-02-14T00:34:29.839Z,35.15
2023-02-14T00:36:58.878Z,32.30
2023-02-14T00:39:27.278Z,31.73
2023-02-14T00:41:55.604Z,33.13
2023-02-14T00:44:24.084Z,31.23
2023-02-14T00:46:52.414Z,33.63
2023-02-14T00:49:20.711Z,33.50
2023-02-14T00:51:50.397Z,32.20
2023-02-14T00:54:18.716Z,31.23
2023-02-14T00:56:47.100Z,32.00
2023-02-14T00:59:15.436Z,34.00
2023-02-14T01:01:43.759Z,31.60
2023-02-14T01:04:12.280Z,31.43
2023-02-14T01:06:40.682Z,33.13
2023-02-14T01:09:10.394Z,33.40
2023-02-14T01:11:40.536Z,31.80
2023-02-14T01:14:08.893Z,32.17
2023-02-14T01:16:37.891Z,32.30
2023-02-14T01:19:06.275Z,31.87
2023-02-14T01:21:35.402Z,31.77
2023-02-14T01:24:05.791Z,31.37
2023-02-14T01:26:36.434Z,32.93
2023-02-14T01:29:05.835Z,31.63
2023-02-14T01:31:36.223Z,33.17
2023-02-14T01:34:05.184Z,32.27
2023-02-14T01:36:35.466Z,31.97
2023-02-14T01:39:05.828Z,32.57
2023-02-14T01:41:37.748Z,32.17
2023-02-14T01:44:08.620Z,36.80
2023-02-14T01:46:38.673Z,31.40
2023-02-14T01:49:10.789Z,32.03
2023-02-14T01:51:42.342Z,30.33
2023-02-14T01:54:11.738Z,30.93
2023-02-14T01:56:44.730Z,31.20
2023-02-14T01:59:16.933Z,31.70
2023-02-14T02:01:46.337Z,31.33
2023-02-14T02:04:18.948Z,30.93
2023-02-14T02:06:50.845Z,36.33
2023-02-14T02:09:22.941Z,32.20
2023-02-14T02:11:52.646Z,31.37
2023-02-14T02:14:23.374Z,31.67
2023-02-14T02:17:08.364Z,32.67
2023-02-14T02:20:18.260Z,30.03
2023-02-14T02:23:26.169Z,32.57
2023-02-14T02:26:26.944Z,33.33
2023-02-14T02:29:28.358Z,30.80
2023-02-14T02:32:30.566Z,31.43
2023-02-14T02:35:26.005Z,30.10
2023-02-14T02:38:15.875Z,30.97
2023-02-14T02:40:50.944Z,30.93
2023-02-14T02:43:32.195Z,30.37
2023-02-14T02:46:22.475Z,33.83
2023-02-14T02:49:00.760Z,32.27
2023-02-14T02:51:55.716Z,33.43
2023-02-14T02:54:32.641Z,31.17
2023-02-14T02:57:04.605Z,32.13
2023-02-14T02:59:36.049Z,31.47
2023-02-14T03:02:08.941Z,30.20
2023-02-14T03:04:55.316Z,32.00
2023-02-14T03:07:36.651Z,33.73
2023-02-14T03:10:10.610Z,32.60
2023-02-14T03:13:05.644Z,32.13
2023-02-14T03:15:47.959Z,31.37
2023-02-14T03:18:44.713Z,30.27
2023-02-14T03:21:25.148Z,32.83
2023-02-14T03:23:59.198Z,32.97
2023-02-14T03:26:34.534Z,32.93
2023-02-14T03:29:13.645Z,32.97
2023-02-14T03:31:51.843Z,33.60
2023-02-14T03:34:24.806Z,33.47
2023-02-14T03:37:00.202Z,31.83
2023-02-14T03:39:34.526Z,31.53
2023-02-14T03:42:08.671Z,31.87
2023-02-14T03:44:39.106Z,31.63
2023-02-14T03:47:11.281Z,31.60
2023-02-14T03:49:43.633Z,32.73
2023-02-14T03:52:13.536Z,32.17
2023-02-14T03:54:44.177Z,33.23
2023-02-14T03:57:18.285Z,31.13
2023-02-14T03:59:46.654Z,32.07
2023-02-14T04:02:18.715Z,31.93
2023-02-14T04:04:49.354Z,33.27
2023-02-14T04:07:20.579Z,33.93
2023-02-14T04:09:50.752Z,30.60
2023-02-14T04:12:32.328Z,32.28
2023-02-14T04:15:04.323Z,32.60
2023-02-14T04:17:50.362Z,30.40
2023-02-14T04:20:18.781Z,30.50
2023-02-14T04:22:47.457Z,32.30
2023-02-14T04:25:17.324Z,30.73
2023-02-14T04:27:45.973Z,30.87
2023-02-14T04:30:15.280Z,32.67
2023-02-14T04:32:43.574Z,32.27
2023-02-14T04:35:12.321Z,32.50
2023-02-14T04:37:40.694Z,32.30
2023-02-14T04:40:10.367Z,30.70
2023-02-14T04:42:40.170Z,32.63
2023-02-14T04:45:09.139Z,31.07
2023-02-14T04:47:37.615Z,33.03
2023-02-14T04:50:06.710Z,32.47
2023-02-14T04:52:35.108Z,31.97
2023-02-14T04:55:04.501Z,32.33
2023-02-14T04:57:33.005Z,32.10
2023-02-14T05:00:03.001Z,33.23
2023-02-14T05:02:31.276Z,32.93
2023-02-14T05:04:59.587Z,32.77
2023-02-14T05:07:28.156Z,33.57
2023-02-14T05:09:56.522Z,32.27
2023-02-14T05:12:24.916Z,34.23
2023-02-14T05:14:53.296Z,32.83
2023-02-14T05:17:23.073Z,30.77
2023-02-14T05:19:51.388Z,30.90
2023-02-14T05:22:19.765Z,33.57
2023-02-14T05:24:48.119Z,33.53
2023-02-14T05:27:16.540Z,32.63
2023-02-14T05:29:44.876Z,32.63
2023-02-14T05:32:13.216Z,34.00
2023-02-14T05:34:42.949Z,32.47
2023-02-14T05:37:11.357Z,35.37
2023-02-14T05:39:39.772Z,33.23
2023-02-14T05:44:36.122Z,33.77
2023-02-14T05:47:04.429Z,36.60
2023-02-14T05:49:32.745Z,34.93
2023-02-14T05:52:02.502Z,34.87
2023-02-14T05:54:30.837Z,34.87
2023-02-14T05:56:59.225Z,37.17
2023-02-14T05:59:27.613Z,36.50
2023-02-14T06:01:55.977Z,35.80
2023-02-14T06:04:24.461Z,34.40
2023-02-14T06:06:52.827Z,33.20
2023-02-14T06:09:22.616Z,34.77
2023-02-14T06:11:50.951Z,35.40
2023-02-14T06:14:19.639Z,34.93
2023-02-14T06:16:48.029Z,37.20
2023-02-14T06:19:16.432Z,35.53
2023-02-14T06:21:44.792Z,37.67
2023-02-14T06:24:13.877Z,36.00
2023-02-14T06:26:43.640Z,37.97
2023-02-14T06:29:12.046Z,38.33
2023-02-14T06:31:40.612Z,38.87
2023-02-14T06:34:09.166Z,39.87
2023-02-14T06:36:37.542Z,37.37
2023-02-14T06:39:06.171Z,39.10
2023-02-14T06:41:34.484Z,39.67
2023-02-14T06:44:04.235Z,44.27
2023-02-14T06:46:32.591Z,42.60
2023-02-14T06:49:00.911Z,45.83
2023-02-14T06:51:29.173Z,44.00
2023-02-14T06:53:57.518Z,44.27
2023-02-14T06:56:25.829Z,44.00
2023-02-14T06:58:54.244Z,48.70
2023-02-14T07:01:24.173Z,48.00
2023-02-14T07:03:52.425Z,46.13
2023-02-14T07:06:20.770Z,49.10
2023-02-14T07:08:49.273Z,46.43
2023-02-14T07:11:17.624Z,45.07
2023-02-14T07:13:47.998Z,46.30
2023-02-14T07:16:17.549Z,46.70
2023-02-14T07:18:47.677Z,48.83
2023-02-14T07:21:16.033Z,52.63
2023-02-14T07:23:46.442Z,56.20
2023-02-14T07:26:18.160Z,51.10
2023-02-14T07:28:46.790Z,52.42
2023-02-14T07:31:15.257Z,51.87
2023-02-14T07:33:43.574Z,48.77
2023-02-14T07:36:13.573Z,51.73
2023-02-14T07:38:42.005Z,49.30
2023-02-14T07:41:10.311Z,47.93
2023-02-14T07:43:39.814Z,49.57
2023-02-14T07:46:08.639Z,49.43
2023-02-14T07:48:39.345Z,49.03
2023-02-14T07:51:07.615Z,54.08
2023-02-14T07:53:37.322Z,50.10
2023-02-14T07:56:05.921Z,50.00
2023-02-14T07:58:34.299Z,54.33
2023-02-14T08:01:02.731Z,49.97
2023-02-14T08:03:31.197Z,48.37
2023-02-14T08:05:59.545Z,45.10
2023-02-14T08:08:29.256Z,46.50
2023-02-14T08:10:59.641Z,46.97
2023-02-14T08:13:27.208Z,43.47
2023-02-14T08:16:09.693Z,43.97
2023-02-14T08:18:40.376Z,41.50
2023-02-14T08:21:10.736Z,38.57
2023-02-14T08:23:39.499Z,42.27
2023-02-14T08:26:09.458Z,42.53
2023-02-14T08:28:37.765Z,43.40
2023-02-14T08:31:06.823Z,43.13
2023-02-14T08:33:35.192Z,37.07
2023-02-14T08:36:03.975Z,35.93
2023-02-14T08:38:32.231Z,37.80
2023-02-14T08:41:07.474Z,35.53
2023-02-14T08:43:38.832Z,36.13
2023-02-14T08:46:07.317Z,37.13
2023-02-14T08:48:39.188Z,37.57
2023-02-14T08:51:08.757Z,35.63
2023-02-14T08:53:37.482Z,36.53
2023-02-14T08:56:07.084Z,32.07
2023-02-14T08:58:38.384Z,31.67
2023-02-14T09:01:10.256Z,32.40
2023-02-14T09:03:39.154Z,30.53
2023-02-14T09:06:09.195Z,28.57
2023-02-14T09:08:39.888Z,28.43
2023-02-14T09:11:09.773Z,27.47
2023-02-14T09:13:46.839Z,28.17
2023-02-14T09:16:17.694Z,26.90
2023-02-14T09:18:46.671Z,25.67
2023-02-14T09:21:17.533Z,26.37
2023-02-14T09:23:48.945Z,21.93
2023-02-14T09:26:18.251Z,25.63
2023-02-14T09:28:48.329Z,24.00
2023-02-14T09:31:21.338Z,23.77
2023-02-14T09:33:50.913Z,20.87
2023-02-14T09:36:37.032Z,20.03
2023-02-14T09:39:05.498Z,20.77
2023-02-14T09:41:58.246Z,20.43
2023-02-14T09:44:32.876Z,19.03
2023-02-14T09:47:07.440Z,20.40
2023-02-14T09:49:39.857Z,19.77
2023-02-14T09:52:14.533Z,20.67
2023-02-14T09:54:47.598Z,18.97
2023-02-14T09:57:24.351Z,19.10
2023-02-14T09:59:58.587Z,18.70
2023-02-14T10:02:40.546Z,17.70
2023-02-14T10:05:15.795Z,18.73
2023-02-14T10:07:58.917Z,18.37
2023-02-14T10:10:32.896Z,19.10
2023-02-14T10:13:08.898Z,18.43
2023-02-14T10:15:43.804Z,19.23
2023-02-14T10:18:18.022Z,18.40
2023-02-14T10:20:49.776Z,16.53
2023-02-14T10:23:33.685Z,17.43
2023-02-14T10:26:03.750Z,18.23
2023-02-14T10:28:35.419Z,17.43
2023-02-14T10:31:20.779Z,17.10
2023-02-14T10:33:57.096Z,16.90
2023-02-14T10:36:53.363Z,16.43
2023-02-14T10:39:46.103Z,16.40
2023-02-14T10:42:22.667Z,16.03
2023-02-14T10:44:58.852Z,16.73
2023-02-14T10:47:41.597Z,16.33
2023-02-14T10:50:19.087Z,14.67
2023-02-14T10:53:08.661Z,14.47
2023-02-14T10:55:45.826Z,16.07
2023-02-14T10:58:17.311Z,15.37
2023-02-14T11:00:54.346Z,14.60
2023-02-14T11:03:25.184Z,15.07
2023-02-14T11:05:53.668Z,14.13
2023-02-14T11:08:28.052Z,14.63
2023-02-14T11:11:02.675Z,14.83
2023-02-14T11:13:34.470Z,13.70
2023-02-14T11:16:04.707Z,13.87
2023-02-14T11:18:36.274Z,12.90
2023-02-14T11:21:08.011Z,12.30
2023-02-14T11:23:39.660Z,12.00
2023-02-14T11:26:17.293Z,11.67
2023-02-14T11:28:52.273Z,12.03
2023-02-14T11:31:30.186Z,9.77
2023-02-14T11:34:02.939Z,10.57
2023-02-14T11:36:33.824Z,10.43
2023-02-14T11:39:08.819Z,11.30
2023-02-14T11:41:56.365Z,9.90
2023-02-14T11:44:27.164Z,10.27
2023-02-14T11:46:57.704Z,8.87
2023-02-14T11:49:31.162Z,9.67
2023-02-14T11:52:01.269Z,10.75
2023-02-14T11:54:34.824Z,11.17
2023-02-14T11:57:08.618Z,9.37
2023-02-14T11:59:42.160Z,9.37
2023-02-14T12:02:24.499Z,10.17
2023-02-14T12:04:57.212Z,8.43
2023-02-14T12:07:29.842Z,8.70
2023-02-14T12:10:24.315Z,8.20
2023-02-14T12:12:55.845Z,8.10
2023-02-14T12:15:37.859Z,8.90
2023-02-14T12:18:39.787Z,9.20
2023-02-14T12:21:40.395Z,10.73
2023-02-14T12:24:21.597Z,11.53
2023-02-14T12:26:59.088Z,10.93
2023-02-14T12:29:34.280Z,11.70
2023-02-14T12:32:34.062Z,12.47
2023-02-14T12:35:05.475Z,11.63
2023-02-14T12:37:48.727Z,12.00
2023-02-14T12:40:29.228Z,11.80
2023-02-14T12:43:24.110Z,11.83
2023-02-14T12:46:19.560Z,12.03
2023-02-14T12:49:05.946Z,11.17
2023-02-14T12:51:42.001Z,10.17
2023-02-14T12:54:29.550Z,11.30
2023-02-14T12:57:04.245Z,10.43
2023-02-14T12:59:45.098Z,9.27
2023-02-14T13:02:48.583Z,9.67
2023-02-14T13:05:23.933Z,8.70
2023-02-14T13:08:12.769Z,8.70
2023-02-14T13:10:57.156Z,9.57
2023-02-14T13:13:40.339Z,8.00
2023-02-14T13:16:18.483Z,8.20
2023-02-14T13:18:55.127Z,8.90
2023-02-14T13:21:27.358Z,8.97
2023-02-14T13:24:02.101Z,11.07
2023-02-14T13:26:36.793Z,11.33
2023-02-14T13:29:08.160Z,10.80
2023-02-14T13:31:37.835Z,11.27
2023-02-14T13:34:16.788Z,11.77
2023-02-14T13:36:47.487Z,12.23
2023-02-14T13:39:24.571Z,11.68
2023-02-14T13:41:54.355Z,12.18
2023-02-14T13:44:53.255Z,13.00
2023-02-14T13:47:22.901Z,11.32
2023-02-14T13:49:56.540Z,11.43
2023-02-14T13:52:46.858Z,11.27
2023-02-14T13:55:20.335Z,11.43
2023-02-14T13:58:02.756Z,10.75
2023-02-14T14:00:39.592Z,10.95
2023-02-14T14:03:13.396Z,10.52
2023-02-14T14:06:06.899Z,10.70
2023-02-14T14:08:47.420Z,10.43
2023-02-14T14:11:57.142Z,10.65
2023-02-14T14:14:39.712Z,10.38
2023-02-14T14:17:27.783Z,10.52
2023-02-14T14:19:58.020Z,10.65
2023-02-14T14:22:27.401Z,10.48
2023-02-14T14:24:58.516Z,10.18
2023-02-14T14:27:31.966Z,10.88
2023-02-14T14:30:03.487Z,11.00
2023-02-14T14:32:34.365Z,11.45
2023-02-14T14:35:05.263Z,10.45
2023-02-14T14:37:35.755Z,10.18
2023-02-14T14:40:06.456Z,10.73
2023-02-14T14:42:38.585Z,9.83
2023-02-14T14:45:23.590Z,10.87
2023-02-14T14:47:54.579Z,10.00
2023-02-14T14:50:25.271Z,11.60
2023-02-14T14:52:55.888Z,11.37
2023-02-14T14:55:27.673Z,12.13
2023-02-14T14:57:58.551Z,11.70
2023-02-14T15:00:29.882Z,12.83
2023-02-14T15:03:01.301Z,12.07
2023-02-14T15:05:32.721Z,13.37
2023-02-14T15:08:15.434Z,11.50
2023-02-14T15:10:44.734Z,10.87
2023-02-14T15:13:34.205Z,12.03
2023-02-14T15:16:06.425Z,10.50
2023-02-14T15:18:34.764Z,9.90
2023-02-14T15:21:04.910Z,10.33
2023-02-14T15:23:33.326Z,9.93
2023-02-14T15:26:02.199Z,10.67
2023-02-14T15:28:33.258Z,10.37
2023-02-14T15:31:06.158Z,10.43
2023-02-14T15:33:35.425Z,11.10
2023-02-14T15:36:06.299Z,10.97
2023-02-14T15:38:36.549Z,10.13
2023-02-14T15:41:05.278Z,12.15
2023-02-14T15:43:36.255Z,10.73
2023-02-14T15:46:19.742Z,11.00
2023-02-14T15:48:48.567Z,10.63
2023-02-14T15:51:20.994Z,11.80
2023-02-14T15:53:53.914Z,10.93
2023-02-14T15:56:26.201Z,11.70
2023-02-14T15:59:01.367Z,11.40
2023-02-14T16:01:32.222Z,11.60
2023-02-14T16:04:03.072Z,11.53
2023-02-14T16:06:37.321Z,11.37
2023-02-14T16:09:08.589Z,12.67
2023-02-14T16:11:38.885Z,12.03
2023-02-14T16:14:31.342Z,12.17
2023-02-14T16:17:04.887Z,12.13
2023-02-14T16:19:38.362Z,11.73
2023-02-14T16:22:08.293Z,11.83
2023-02-14T16:24:38.050Z,12.73
2023-02-14T16:27:08.076Z,12.30
2023-02-14T16:29:37.741Z,11.50
2023-02-14T16:32:18.459Z,12.07
2023-02-14T16:34:50.689Z,13.03
2023-02-14T16:37:22.391Z,11.90
2023-02-14T16:39:52.391Z,11.60
2023-02-14T16:42:20.788Z,13.00
2023-02-14T16:44:49.211Z,12.07
2023-02-14T16:47:21.684Z,12.33
2023-02-14T16:49:50.745Z,12.03
2023-02-14T16:52:23.816Z,12.97
2023-02-14T16:54:52.356Z,11.83
2023-02-14T16:57:22.729Z,11.77
2023-02-14T16:59:51.892Z,12.43
2023-02-14T17:02:21.991Z,11.03
2023-02-14T17:04:50.481Z,13.50
2023-02-14T17:07:19.100Z,11.90
2023-02-14T17:09:51.470Z,12.30
2023-02-14T17:12:23.254Z,12.70
2023-02-14T17:14:55.798Z,12.73
2023-02-14T17:17:26.238Z,13.00
2023-02-14T17:19:54.747Z,13.50
2023-02-14T17:22:23.194Z,13.60
2023-02-14T17:24:51.564Z,13.20
2023-02-14T17:27:19.845Z,15.60
2023-02-14T17:29:51.560Z,15.60
2023-02-14T17:32:20.020Z,13.37
2023-02-14T17:34:50.134Z,16.30
2023-02-14T17:37:19.445Z,14.43
2023-02-14T17:39:47.761Z,15.50
2023-02-14T17:42:16.127Z,15.53
2023-02-14T17:44:44.797Z,19.70
2023-02-14T17:47:14.856Z,18.23
2023-02-14T17:49:43.282Z,16.47
2023-02-14T17:52:12.968Z,21.13
2023-02-14T17:54:41.448Z,21.93
2023-02-14T17:57:13.704Z,26.37
2023-02-14T17:59:45.484Z,31.43
2023-02-14T18:02:14.408Z,29.30
2023-02-14T18:04:51.666Z,30.70
2023-02-14T18:07:32.013Z,36.70
2023-02-14T18:10:00.422Z,37.20
2023-02-14T18:12:31.029Z,42.30
2023-02-14T18:15:06.012Z,43.80
2023-02-14T18:17:34.367Z,45.10
2023-02-14T18:20:06.287Z,42.53
2023-02-14T18:22:46.127Z,43.97
2023-02-14T18:25:16.486Z,41.97
2023-02-14T18:27:49.031Z,40.33
2023-02-14T18:30:24.240Z,41.33
2023-02-14T18:33:02.950Z,38.13
2023-02-14T18:35:35.419Z,35.23
2023-02-14T18:38:14.929Z,37.73
2023-02-14T18:40:43.452Z,35.30
2023-02-14T18:43:13.758Z,30.37
2023-02-14T18:45:47.021Z,34.83
2023-02-14T18:48:27.044Z,29.03
2023-02-14T18:51:01.759Z,34.33
2023-02-14T18:53:36.271Z,37.93
2023-02-14T18:56:16.476Z,36.67
2023-02-14T18:58:48.100Z,38.30
2023-02-14T19:01:23.870Z,39.40
2023-02-14T19:03:59.717Z,45.28
2023-02-14T19:06:32.633Z,43.97
2023-02-14T19:09:03.657Z,45.77
2023-02-14T19:11:33.040Z,44.17
2023-02-14T19:14:03.389Z,44.13
2023-02-14T19:16:34.351Z,44.50
2023-02-14T19:19:03.022Z,43.67
2023-02-14T19:21:33.726Z,43.33
2023-02-14T19:24:06.925Z,43.43
2023-02-14T19:26:40.429Z,44.90
2023-02-14T19:29:11.781Z,43.50
2023-02-14T19:31:43.198Z,43.67
2023-02-14T19:34:17.264Z,49.90
2023-02-14T19:36:45.728Z,52.77
2023-02-14T19:39:15.806Z,56.53
2023-02-14T19:41:44.226Z,46.67
2023-02-14T19:44:14.463Z,44.03
2023-02-14T19:46:43.805Z,46.87
2023-02-14T19:49:14.593Z,45.57
2023-02-14T19:51:42.862Z,47.07
2023-02-14T19:54:12.633Z,45.93
2023-02-14T19:56:44.720Z,42.87
2023-02-14T19:59:15.343Z,42.70
2023-02-14T20:01:46.370Z,39.93
2023-02-14T20:04:17.623Z,43.60
2023-02-14T20:06:46.771Z,41.70
2023-02-14T20:09:16.270Z,40.37
2023-02-14T20:11:50.171Z,39.27
2023-02-14T20:14:19.875Z,38.33
2023-02-14T20:16:49.220Z,37.13
2023-02-14T20:19:19.683Z,35.23
2023-02-14T20:21:49.486Z,36.10
2023-02-14T20:24:20.340Z,36.40
2023-02-14T20:26:51.057Z,32.27
2023-02-14T20:29:20.532Z,32.60
2023-02-14T20:31:50.865Z,29.60
2023-02-14T20:34:20.522Z,26.30
2023-02-14T20:36:53.183Z,28.47
2023-02-14T20:39:23.626Z,27.77
2023-02-14T20:41:54.075Z,27.10
2023-02-14T20:44:22.940Z,23.70
2023-02-14T20:46:53.061Z,24.03
2023-02-14T20:49:21.596Z,26.77
2023-02-14T20:51:51.037Z,25.33
2023-02-14T20:54:19.974Z,23.43
2023-02-14T20:56:49.001Z,22.83
2023-02-14T20:59:24.383Z,22.93
2023-02-14T21:01:52.733Z,22.57
2023-02-14T21:04:21.087Z,23.23
2023-02-14T21:06:49.760Z,22.97
2023-02-14T21:09:20.766Z,21.60
2023-02-14T21:11:49.675Z,21.70
2023-02-14T21:14:20.860Z,21.47
2023-02-14T21:16:49.254Z,22.37
2023-02-14T21:19:17.707Z,21.27
2023-02-14T21:21:46.081Z,20.83
2023-02-14T21:24:16.067Z,19.67
2023-02-14T21:26:44.821Z,21.20
2023-02-14T21:29:13.433Z,20.40
2023-02-14T21:31:43.272Z,18.63
2023-02-14T21:34:12.038Z,21.30
2023-02-14T21:36:40.339Z,19.60
2023-02-14T21:39:08.721Z,20.80
2023-02-14T21:41:37.950Z,20.40
2023-02-14T21:44:07.460Z,20.43
2023-02-14T21:46:38.697Z,21.47
2023-02-14T21:49:25.826Z,19.13
2023-02-14T21:51:54.104Z,20.07
2023-02-14T21:54:22.545Z,18.77
2023-02-14T21:56:50.965Z,19.60
2023-02-14T21:59:19.587Z,19.70
2023-02-14T22:01:47.908Z,20.63
2023-02-14T22:04:17.633Z,19.67
2023-02-14T22:06:45.949Z,19.17
2023-02-14T22:09:17.524Z,20.97
2023-02-14T22:11:47.581Z,19.80
2023-02-14T22:14:16.314Z,19.10
2023-02-14T22:16:44.586Z,18.13
2023-02-14T22:19:15.513Z,19.00
2023-02-14T22:21:45.585Z,19.00
2023-02-14T22:24:13.958Z,17.23
2023-02-14T22:26:42.392Z,19.73
2023-02-14T22:29:12.458Z,19.47
2023-02-14T22:31:42.911Z,20.40
2023-02-14T22:34:13.376Z,19.60
2023-02-14T22:36:42.063Z,20.33
2023-02-14T22:39:13.699Z,19.23
2023-02-14T22:41:42.058Z,21.33
2023-02-14T22:44:10.976Z,20.80
2023-02-14T22:46:39.405Z,20.80
2023-02-14T22:49:08.516Z,21.13
2023-02-14T22:51:38.463Z,20.20
2023-02-14T22:54:10.003Z,19.67
2023-02-14T22:56:42.593Z,20.87
2023-02-14T22:59:18.298Z,20.17
2023-02-14T23:01:47.571Z,20.27
2023-02-14T23:04:17.426Z,20.90
2023-02-14T23:06:45.754Z,20.47
2023-02-14T23:09:15.321Z,22.30
2023-02-14T23:11:47.126Z,21.10
2023-02-14T23:14:34.391Z,20.23
2023-02-14T23:17:21.056Z,22.40
2023-02-14T23:20:06.928Z,20.27
2023-02-14T23:22:37.526Z,20.40
2023-02-14T23:25:08.032Z,19.17
2023-02-14T23:27:40.805Z,19.67
2023-02-14T23:30:11.524Z,21.00
2023-02-14T23:32:40.067Z,22.73
2023-02-14T23:35:08.648Z,21.93
2023-02-14T23:37:36.992Z,23.07
2023-02-14T23:40:05.638Z,23.27
2023-02-14T23:42:33.954Z,22.77
2023-02-14T23:45:17.383Z,24.10
2023-02-14T23:47:45.688Z,26.37
2023-02-14T23:50:14.043Z,25.90
2023-02-14T23:52:42.487Z,24.03
2023-02-14T23:55:11.268Z,25.10
2023-02-14T23:57:39.671Z,25.03
